createdAt,value
2022-10-17T00:05:12.123Z,15.10
2022-10-17T00:10:33.914Z,15.12
2022-10-17T00:15:55.741Z,15.03
2022-10-17T00:21:19.057Z,15.01
2022-10-17T00:26:40.914Z,14.94
2022-10-17T00:32:02.627Z,14.92
2022-10-17T00:37:24.403Z,14.87
2022-10-17T00:42:46.206Z,14.64
2022-10-17T00:48:11.085Z,14.54
2022-10-17T00:53:33.717Z,14.60
2022-10-17T00:58:55.915Z,14.59
2022-10-17T01:04:19.026Z,14.63
2022-10-17T01:09:42.694Z,14.61
2022-10-17T01:15:25.708Z,14.65
2022-10-17T01:21:08.501Z,14.61
2022-10-17T01:26:36.258Z,14.43
2022-10-17T01:32:16.191Z,14.42
2022-10-17T01:37:50.368Z,14.46
2022-10-17T01:43:22.973Z,14.40
2022-10-17T01:48:46.449Z,14.29
2022-10-17T01:54:11.066Z,14.25
2022-10-17T01:59:40.925Z,14.21
2022-10-17T02:05:04.491Z,14.15
2022-10-17T02:10:57.351Z,14.22
2022-10-17T02:16:31.265Z,14.42
2022-10-17T02:22:04.237Z,14.41
2022-10-17T02:27:56.732Z,14.32
2022-10-17T02:33:32.675Z,14.10
2022-10-17T02:38:55.506Z,14.29
2022-10-17T02:44:17.917Z,14.31
2022-10-17T02:49:43.779Z,14.18
2022-10-17T02:55:19.336Z,14.22
2022-10-17T03:00:41.914Z,14.16
2022-10-17T03:06:03.728Z,14.30
2022-10-17T03:11:25.459Z,14.42
2022-10-17T03:16:47.363Z,14.48
2022-10-17T03:22:09.068Z,14.39
2022-10-17T03:27:31.125Z,14.33
2022-10-17T03:32:53.244Z,14.19
2022-10-17T03:38:14.961Z,14.16
2022-10-17T03:43:36.714Z,14.18
2022-10-17T03:48:58.491Z,14.21
2022-10-17T03:54:20.205Z,14.13
2022-10-17T03:59:41.921Z,14.17
2022-10-17T04:05:03.877Z,14.17
2022-10-17T04:10:25.632Z,14.12
2022-10-17T04:15:58.372Z,13.77
2022-10-17T04:21:20.110Z,13.75
2022-10-17T04:26:41.838Z,13.72
2022-10-17T04:32:04.054Z,13.70
2022-10-17T04:37:25.742Z,13.85
2022-10-17T04:42:47.576Z,14.00
2022-10-17T04:48:09.347Z,13.96
2022-10-17T04:53:33.344Z,13.89
2022-10-17T04:58:55.085Z,13.93
2022-10-17T05:04:19.888Z,13.96
2022-10-17T05:09:44.482Z,13.87
2022-10-17T05:15:06.891Z,13.87
2022-10-17T05:20:28.738Z,13.88
2022-10-17T05:25:56.642Z,13.89
2022-10-17T05:31:18.824Z,13.96
2022-10-17T05:36:40.565Z,13.96
2022-10-17T05:42:02.416Z,13.90
2022-10-17T05:47:24.157Z,13.87
2022-10-17T05:52:47.167Z,13.85
2022-10-17T05:58:11.707Z,13.77
2022-10-17T06:03:39.593Z,13.71
2022-10-17T06:09:01.362Z,13.80
2022-10-17T06:14:23.163Z,13.82
2022-10-17T06:19:45.202Z,13.85
2022-10-17T06:25:07.444Z,13.88
2022-10-17T06:30:29.200Z,13.91
2022-10-17T06:35:55.132Z,13.88
2022-10-17T06:41:19.269Z,13.75
2022-10-17T06:46:41.034Z,13.81
2022-10-17T06:52:02.778Z,13.79
2022-10-17T06:57:24.540Z,13.69
2022-10-17T07:02:46.226Z,13.73
2022-10-17T07:08:08.667Z,13.74
2022-10-17T07:13:30.395Z,13.87
2022-10-17T07:18:52.635Z,14.02
2022-10-17T07:24:14.547Z,14.19
2022-10-17T07:29:36.431Z,14.33
2022-10-17T07:34:58.131Z,14.41
2022-10-17T07:40:19.933Z,14.50
2022-10-17T07:45:41.843Z,14.53
2022-10-17T07:51:05.399Z,14.67
2022-10-17T07:56:27.134Z,14.81
2022-10-17T08:01:48.923Z,14.95
2022-10-17T08:07:20.021Z,15.08
2022-10-17T08:12:44.881Z,15.19
2022-10-17T08:18:06.608Z,15.24
2022-10-17T08:23:28.739Z,15.31
2022-10-17T08:28:50.476Z,15.42
2022-10-17T08:34:12.277Z,15.49
2022-10-17T08:39:33.961Z,15.57
2022-10-17T08:45:16.941Z,15.56
2022-10-17T08:50:48.493Z,15.61
2022-10-17T08:56:25.002Z,15.66
2022-10-17T09:02:27.179Z,15.79
2022-10-17T09:07:54.053Z,15.89
2022-10-17T09:13:31.731Z,15.99
2022-10-17T09:19:22.805Z,16.08
2022-10-17T09:24:51.189Z,16.18
2022-10-17T09:30:46.212Z,16.26
2022-10-17T09:36:13.646Z,16.36
2022-10-17T09:41:46.625Z,16.46
2022-10-17T09:47:38.102Z,16.53
2022-10-17T09:53:30.750Z,16.63
2022-10-17T09:58:57.289Z,16.72
2022-10-17T10:04:19.029Z,16.81
2022-10-17T10:09:46.961Z,16.91
2022-10-17T10:15:32.209Z,17.01
2022-10-17T10:21:07.692Z,17.12
2022-10-17T10:26:40.034Z,17.30
2022-10-17T10:32:08.176Z,17.53
2022-10-17T10:37:38.213Z,17.59
2022-10-17T10:43:05.183Z,17.60
2022-10-17T10:48:34.375Z,17.64
2022-10-17T10:54:05.205Z,17.82
2022-10-17T10:59:56.508Z,18.04
2022-10-17T11:05:35.590Z,18.16
2022-10-17T11:11:19.399Z,18.43
2022-10-17T11:17:01.020Z,18.61
2022-10-17T11:22:31.139Z,18.54
2022-10-17T11:27:53.049Z,18.59
2022-10-17T11:33:27.627Z,18.75
2022-10-17T11:39:01.710Z,18.87
2022-10-17T11:44:38.622Z,19.17
2022-10-17T11:56:02.124Z,19.72
2022-10-17T12:01:44.546Z,19.90
2022-10-17T12:07:17.934Z,20.14
2022-10-17T12:12:40.546Z,20.29
2022-10-17T12:18:03.922Z,20.31
2022-10-17T12:23:32.514Z,20.52
2022-10-17T12:28:55.456Z,20.50
2022-10-17T12:34:21.574Z,20.51
2022-10-17T12:39:43.310Z,20.62
2022-10-17T12:45:43.942Z,20.63
2022-10-17T12:56:52.867Z,20.67
2022-10-17T13:02:23.776Z,20.65
2022-10-17T13:07:48.384Z,20.76
2022-10-17T13:13:19.053Z,20.73
2022-10-17T13:18:40.829Z,20.73
2022-10-17T13:24:23.644Z,21.09
2022-10-17T13:29:45.398Z,20.87
2022-10-17T13:35:22.059Z,20.81
2022-10-17T13:40:50.470Z,20.77
2022-10-17T13:46:38.407Z,20.81
2022-10-17T13:52:03.777Z,20.66
2022-10-17T13:57:30.374Z,20.66
2022-10-17T14:02:52.235Z,20.74
2022-10-17T14:08:22.803Z,20.67
2022-10-17T14:13:49.396Z,20.64
2022-10-17T14:19:33.197Z,20.69
2022-10-17T14:24:59.040Z,20.70
2022-10-17T14:30:51.565Z,20.74
2022-10-17T14:36:08.055Z,20.85
2022-10-17T14:41:43.530Z,20.77
2022-10-17T14:47:38.053Z,20.73
2022-10-17T14:53:12.689Z,20.55
2022-10-17T14:58:34.805Z,20.53
2022-10-17T15:03:56.488Z,20.45
2022-10-17T15:09:18.169Z,20.39
2022-10-17T15:14:39.879Z,20.33
2022-10-17T15:20:01.623Z,20.27
2022-10-17T15:25:24.706Z,20.25
2022-10-17T15:30:46.481Z,20.20
2022-10-17T15:36:38.882Z,20.11
2022-10-17T15:42:00.647Z,20.09
2022-10-17T15:47:33.880Z,20.05
2022-10-17T15:52:56.259Z,19.99
2022-10-17T15:58:18.871Z,19.93
2022-10-17T16:03:40.642Z,19.86
2022-10-17T16:09:02.445Z,19.79
2022-10-17T16:14:24.152Z,19.75
2022-10-17T16:19:45.889Z,19.70
2022-10-17T16:25:19.322Z,19.58
2022-10-17T16:30:44.470Z,19.47
2022-10-17T16:36:07.228Z,19.39
2022-10-17T16:41:31.701Z,19.36
2022-10-17T16:46:53.433Z,19.31
2022-10-17T16:52:15.231Z,19.24
2022-10-17T16:57:37.062Z,19.21
2022-10-17T17:02:58.790Z,19.11
2022-10-17T17:08:20.582Z,19.01
2022-10-17T17:13:42.369Z,18.93
2022-10-17T17:19:06.931Z,18.87
2022-10-17T17:24:29.353Z,18.77
2022-10-17T17:29:51.099Z,18.65
2022-10-17T17:35:12.838Z,18.58
2022-10-17T17:40:34.695Z,18.53
2022-10-17T17:45:56.404Z,18.52
2022-10-17T17:51:21.148Z,18.45
2022-10-17T17:56:44.208Z,18.33
2022-10-17T18:02:06.757Z,18.22
2022-10-17T18:07:28.585Z,18.13
2022-10-17T18:12:50.277Z,18.02
2022-10-17T18:18:12.271Z,17.94
2022-10-17T18:23:38.673Z,17.86
2022-10-17T18:29:00.479Z,17.82
2022-10-17T18:34:22.207Z,17.75
2022-10-17T18:39:44.929Z,17.70
2022-10-17T18:45:07.448Z,17.67
2022-10-17T18:50:29.178Z,17.61
2022-10-17T18:55:51.290Z,17.49
2022-10-17T19:01:16.129Z,17.45
2022-10-17T19:06:37.912Z,17.37
2022-10-17T19:12:00.189Z,17.31
2022-10-17T19:17:21.890Z,17.34
2022-10-17T19:22:43.673Z,17.34
2022-10-17T19:28:05.461Z,17.24
2022-10-17T19:38:53.532Z,17.37
2022-10-17T19:44:16.095Z,17.25
2022-10-17T19:49:37.965Z,17.12
2022-10-17T19:54:59.782Z,17.05
2022-10-17T20:00:21.513Z,17.01
2022-10-17T20:05:43.211Z,16.98
2022-10-17T20:11:11.746Z,16.90
2022-10-17T20:16:35.322Z,16.85
2022-10-17T20:21:57.045Z,16.85
2022-10-17T20:27:18.934Z,16.79
2022-10-17T20:32:40.663Z,16.72
2022-10-17T20:38:02.386Z,16.67
2022-10-17T20:43:24.168Z,16.63
2022-10-17T20:48:46.007Z,16.60
2022-10-17T20:54:07.955Z,16.55
2022-10-17T20:59:29.892Z,16.55
2022-10-17T21:04:51.695Z,16.54
2022-10-17T21:10:34.253Z,16.52
2022-10-17T21:15:55.108Z,16.52
2022-10-17T21:21:36.997Z,16.48
2022-10-17T21:26:58.831Z,16.38
2022-10-17T21:32:33.346Z,16.37
2022-10-17T21:38:02.941Z,16.26
2022-10-17T21:43:24.654Z,16.23
2022-10-17T21:48:47.570Z,16.21
2022-10-17T21:54:09.310Z,16.14
2022-10-17T21:59:31.865Z,16.12
2022-10-17T22:04:53.632Z,16.19
2022-10-17T22:10:15.435Z,16.21
2022-10-17T22:15:37.194Z,16.19
2022-10-17T22:21:03.872Z,16.17
2022-10-17T22:26:27.677Z,16.13
2022-10-17T22:31:49.517Z,16.04
2022-10-17T22:37:11.197Z,16.04
2022-10-17T22:42:34.487Z,16.04
2022-10-17T22:47:56.952Z,16.05
2022-10-17T22:53:23.984Z,16.10
2022-10-17T22:58:46.483Z,16.06
2022-10-17T23:04:08.155Z,15.99
2022-10-17T23:09:29.895Z,15.97
2022-10-17T23:14:51.652Z,15.99
2022-10-17T23:20:13.359Z,15.93
2022-10-17T23:25:35.093Z,15.88
2022-10-17T23:30:56.962Z,15.84
2022-10-17T23:36:20.436Z,15.85
2022-10-17T23:41:42.195Z,15.86
2022-10-17T23:47:03.999Z,15.84
2022-10-17T23:52:25.682Z,15.83
2022-10-17T23:57:47.379Z,15.73
